Más de esta sección

METAR - AERONAUTICA


SADR31 MDSD 082300Z
METAR
METAR MDPP 082300Z 12006KT 5000 RA BKN016 24/20 Q1015=
METAR MDST 082300Z 31005KT 9999 BKN016 22/21 Q1015=
METAR MDPC 082300Z 36004KT 310V010 9999 FEW020 24/19 Q1014=
METAR MDBH 082300Z 13010KT 9999 FEW022 27/24 Q1012=
METAR MDJB 082300Z 36010KT 9999 FEW018 SCT300 24/21 Q1014=
METAR MDSD 082300Z 36006KT 9999 FEW018 SCT080 23/20 Q1014=
METAR MDLR 082300Z 02005KT 9999 FEW016 23/21 Q1013=
METAR MDCY 082300Z 31004KT 9999 FEW018 24/21 Q1014=